createdAt,value
2017-11-28T00:00:26.119Z,0.00
2017-11-28T00:01:26.226Z,0.00
2017-11-28T00:02:26.061Z,0.00
2017-11-28T00:03:26.138Z,0.00
2017-11-28T00:04:25.998Z,0.00
2017-11-28T00:05:26.150Z,0.00
2017-11-28T00:06:25.936Z,0.00
2017-11-28T00:07:26.063Z,0.00
2017-11-28T00:08:25.876Z,0.00
2017-11-28T00:09:25.974Z,0.00
2017-11-28T00:10:25.819Z,0.00
2017-11-28T00:11:25.990Z,0.00
2017-11-28T00:12:25.754Z,0.00
2017-11-28T00:13:25.901Z,0.00
2017-11-28T00:14:25.697Z,0.00
2017-11-28T00:15:25.814Z,0.00
2017-11-28T00:16:25.631Z,0.00
2017-11-28T00:17:25.721Z,0.00
2017-11-28T00:18:25.571Z,0.00
2017-11-28T00:19:27.688Z,0.00
2017-11-28T00:20:25.511Z,0.00
2017-11-28T00:21:25.646Z,0.00
2017-11-28T00:22:25.447Z,0.00
2017-11-28T00:23:25.557Z,0.00
2017-11-28T00:24:25.394Z,0.00
2017-11-28T00:25:25.577Z,0.00
2017-11-28T00:26:25.330Z,0.00
2017-11-28T00:27:25.492Z,0.00
2017-11-28T00:28:25.273Z,0.00
2017-11-28T00:29:25.303Z,0.00
2017-11-28T00:30:25.206Z,0.00
2017-11-28T00:31:25.204Z,0.00
2017-11-28T00:32:25.148Z,0.00
2017-11-28T00:33:25.221Z,0.00
2017-11-28T00:34:25.086Z,0.00
2017-11-28T00:35:25.134Z,0.00
2017-11-28T00:36:25.027Z,0.00
2017-11-28T00:37:25.043Z,0.00
2017-11-28T00:38:24.960Z,0.00
2017-11-28T00:39:25.058Z,0.00
2017-11-28T00:40:24.908Z,0.00
2017-11-28T00:41:24.969Z,0.00
2017-11-28T00:42:24.842Z,0.00
2017-11-28T00:43:24.881Z,0.00
2017-11-28T00:44:24.791Z,0.00
2017-11-28T00:45:24.789Z,0.00
2017-11-28T00:46:24.719Z,0.00
2017-11-28T00:47:24.807Z,0.00
2017-11-28T00:48:24.658Z,0.00
2017-11-28T00:49:24.718Z,0.00
2017-11-28T00:50:24.609Z,0.00
2017-11-28T00:51:24.632Z,0.00
2017-11-28T00:52:24.536Z,0.00
2017-11-28T00:53:24.641Z,0.00
2017-11-28T00:54:24.473Z,0.00
2017-11-28T00:55:24.549Z,0.00
2017-11-28T00:56:24.418Z,0.00
2017-11-28T00:57:24.465Z,0.00
2017-11-28T00:58:24.358Z,0.00
2017-11-28T00:59:24.377Z,0.00
2017-11-28T01:00:24.292Z,0.00
2017-11-28T01:01:24.389Z,0.00
2017-11-28T01:02:24.235Z,0.00
2017-11-28T01:03:24.301Z,0.00
2017-11-28T01:04:24.176Z,0.00
2017-11-28T01:05:24.214Z,0.00
2017-11-28T01:06:24.134Z,0.00
2017-11-28T01:07:24.125Z,0.00
2017-11-28T01:08:24.052Z,0.00
2017-11-28T01:09:24.704Z,0.00
2017-11-28T01:10:23.988Z,0.00
2017-11-28T01:11:24.049Z,0.00
2017-11-28T01:12:24.656Z,0.00
2017-11-28T01:13:23.960Z,0.00
2017-11-28T01:14:23.881Z,0.00
2017-11-28T01:15:23.974Z,0.00
2017-11-28T01:16:23.804Z,0.00
2017-11-28T01:17:23.883Z,0.00
2017-11-28T01:18:23.859Z,0.00
2017-11-28T01:19:23.797Z,0.00
2017-11-28T01:20:23.684Z,0.00
2017-11-28T01:21:23.706Z,0.00
2017-11-28T01:22:23.618Z,0.00
2017-11-28T01:23:23.722Z,0.00
2017-11-28T01:24:23.563Z,0.00
2017-11-28T01:25:23.634Z,0.00
2017-11-28T01:26:23.501Z,0.00
2017-11-28T01:27:23.544Z,0.00
2017-11-28T01:28:23.435Z,0.00
2017-11-28T01:29:23.559Z,0.00
2017-11-28T01:30:23.381Z,0.00
2017-11-28T01:31:23.470Z,0.00
2017-11-28T01:32:23.337Z,0.00
2017-11-28T01:33:23.381Z,0.00
2017-11-28T01:34:23.255Z,0.00
2017-11-28T01:35:23.293Z,0.00
2017-11-28T01:36:23.199Z,0.00
2017-11-28T01:37:23.304Z,0.00
2017-11-28T01:38:23.136Z,0.00
2017-11-28T01:39:23.216Z,0.00
2017-11-28T01:40:23.071Z,0.00
2017-11-28T01:41:23.138Z,0.00
2017-11-28T01:42:23.014Z,0.00
2017-11-28T01:43:23.143Z,0.00
2017-11-28T01:44:22.947Z,0.00
2017-11-28T01:45:23.076Z,0.00
2017-11-28T01:46:22.892Z,0.00
2017-11-28T01:47:22.966Z,0.00
2017-11-28T01:48:22.827Z,0.00
2017-11-28T01:49:22.875Z,0.00
2017-11-28T01:50:22.762Z,0.00
2017-11-28T01:51:22.890Z,0.00
2017-11-28T01:52:22.708Z,0.00
2017-11-28T01:53:22.800Z,0.00
2017-11-28T01:54:22.643Z,0.00
2017-11-28T01:55:22.722Z,0.00
2017-11-28T01:56:22.578Z,0.00
2017-11-28T01:57:22.729Z,0.00
2017-11-28T01:58:22.523Z,0.00
2017-11-28T01:59:22.641Z,0.00
2017-11-28T02:00:22.459Z,0.00
2017-11-28T02:01:22.548Z,0.00
2017-11-28T02:02:22.395Z,0.00
2017-11-28T02:03:22.478Z,0.00
2017-11-28T02:04:22.343Z,0.00
2017-11-28T02:05:22.472Z,0.00
2017-11-28T02:06:22.272Z,0.00
2017-11-28T02:07:22.398Z,0.00
2017-11-28T02:08:22.216Z,0.00
2017-11-28T02:09:22.298Z,0.00
2017-11-28T02:10:22.157Z,0.00
2017-11-28T02:11:22.213Z,0.00
2017-11-28T02:12:22.107Z,0.00
2017-11-28T02:13:22.226Z,0.00
2017-11-28T02:14:22.033Z,0.00
2017-11-28T02:15:22.181Z,0.00
2017-11-28T02:16:21.968Z,0.00
2017-11-28T02:17:22.053Z,0.00
2017-11-28T02:18:21.909Z,0.00
2017-11-28T02:19:22.063Z,0.00
2017-11-28T02:20:21.844Z,0.00
2017-11-28T02:21:21.973Z,0.00
2017-11-28T02:22:21.789Z,0.00
2017-11-28T02:23:21.891Z,0.00
2017-11-28T02:24:21.720Z,0.00
2017-11-28T02:25:21.802Z,0.00
2017-11-28T02:26:21.676Z,0.00
2017-11-28T02:27:21.812Z,0.00
2017-11-28T02:28:21.600Z,0.00
2017-11-28T02:29:21.726Z,0.00
2017-11-28T02:30:21.548Z,0.00
2017-11-28T02:31:21.636Z,0.00
2017-11-28T02:32:21.481Z,0.00
2017-11-28T02:33:21.655Z,0.00
2017-11-28T02:34:21.421Z,0.00
2017-11-28T02:35:21.564Z,0.00
2017-11-28T02:36:21.353Z,0.00
2017-11-28T02:37:21.480Z,0.00
2017-11-28T02:38:21.298Z,0.00
2017-11-28T02:39:21.387Z,0.00
2017-11-28T02:40:21.234Z,0.00
2017-11-28T02:41:21.401Z,0.00
2017-11-28T02:42:21.172Z,0.00
2017-11-28T02:43:21.313Z,0.00
2017-11-28T02:44:21.117Z,0.00
2017-11-28T02:45:21.227Z,0.00
2017-11-28T02:46:21.059Z,0.00
2017-11-28T02:47:21.238Z,0.00
2017-11-28T02:48:20.990Z,0.00
2017-11-28T02:49:21.148Z,0.00
2017-11-28T02:50:20.928Z,0.00
2017-11-28T02:51:21.070Z,0.00
2017-11-28T02:52:20.868Z,0.00
2017-11-28T02:53:20.972Z,0.00
2017-11-28T02:54:20.809Z,0.00
2017-11-28T02:55:20.989Z,0.00
2017-11-28T02:56:20.742Z,0.00
2017-11-28T02:57:20.897Z,0.00
2017-11-28T02:58:20.678Z,0.00
2017-11-28T02:59:20.704Z,0.00
2017-11-28T03:00:20.628Z,0.00
2017-11-28T03:01:20.616Z,0.00
2017-11-28T03:02:20.560Z,0.00
2017-11-28T03:03:20.634Z,0.00
2017-11-28T03:04:20.500Z,0.00
2017-11-28T03:05:20.541Z,0.00
2017-11-28T03:06:20.443Z,0.00
2017-11-28T03:07:20.457Z,0.00
2017-11-28T03:08:20.377Z,0.00
2017-11-28T03:09:20.465Z,0.00
2017-11-28T03:10:20.318Z,0.00
2017-11-28T03:11:20.385Z,0.00
2017-11-28T03:12:20.254Z,0.00
2017-11-28T03:13:20.286Z,0.00
2017-11-28T03:14:20.198Z,0.00
2017-11-28T03:15:20.198Z,0.00
2017-11-28T03:16:20.134Z,0.00
2017-11-28T03:17:20.214Z,0.00
2017-11-28T03:18:20.073Z,0.00
2017-11-28T03:19:20.121Z,0.00
2017-11-28T03:20:20.007Z,0.00
2017-11-28T03:21:20.032Z,0.00
2017-11-28T03:22:19.952Z,0.00
2017-11-28T03:23:20.047Z,0.00
2017-11-28T03:24:19.890Z,0.00
2017-11-28T03:25:19.962Z,0.00
2017-11-28T03:26:19.825Z,0.00
2017-11-28T03:27:19.867Z,0.00
2017-11-28T03:28:19.771Z,0.00
2017-11-28T03:29:19.782Z,0.00
2017-11-28T03:30:19.709Z,0.00
2017-11-28T03:31:19.799Z,0.00
2017-11-28T03:32:19.647Z,0.00
2017-11-28T03:33:19.708Z,0.00
2017-11-28T03:34:19.585Z,0.00
2017-11-28T03:35:19.619Z,0.00
2017-11-28T03:36:19.527Z,0.00
2017-11-28T03:37:19.635Z,0.00
2017-11-28T03:38:19.463Z,0.00
2017-11-28T03:39:19.544Z,0.00
2017-11-28T03:40:19.405Z,0.00
2017-11-28T03:41:19.457Z,0.00
2017-11-28T03:42:19.338Z,0.00
2017-11-28T03:43:19.368Z,0.00
2017-11-28T03:44:19.285Z,0.00
2017-11-28T03:45:19.382Z,0.00
2017-11-28T03:46:19.219Z,0.00
2017-11-28T03:47:19.294Z,0.00
2017-11-28T03:48:19.155Z,0.00
2017-11-28T03:49:19.203Z,0.00
2017-11-28T03:50:19.100Z,0.00
2017-11-28T03:51:19.218Z,0.00
2017-11-28T03:52:19.040Z,0.00
2017-11-28T03:53:19.130Z,0.00
2017-11-28T03:54:18.976Z,0.00
2017-11-28T03:55:19.041Z,0.00
2017-11-28T03:56:18.915Z,0.00
2017-11-28T03:57:18.954Z,0.00
2017-11-28T03:58:18.861Z,0.00
2017-11-28T03:59:18.965Z,0.00
2017-11-28T04:00:18.795Z,0.00
2017-11-28T04:01:18.876Z,0.00
2017-11-28T04:02:18.738Z,0.00
2017-11-28T04:03:18.792Z,0.00
2017-11-28T04:04:18.673Z,0.00
2017-11-28T04:05:18.816Z,0.00
2017-11-28T04:06:18.613Z,0.00
2017-11-28T04:07:18.713Z,0.00
2017-11-28T04:08:18.554Z,0.00
2017-11-28T04:09:18.624Z,0.00
2017-11-28T04:10:18.490Z,0.00
2017-11-28T04:11:18.538Z,0.00
2017-11-28T04:12:18.434Z,0.00
2017-11-28T04:13:18.551Z,0.00
2017-11-28T04:14:18.369Z,0.00
2017-11-28T04:15:18.463Z,0.00
2017-11-28T04:16:18.310Z,0.00
2017-11-28T04:17:18.378Z,0.00
2017-11-28T04:18:18.250Z,0.00
2017-11-28T04:19:18.391Z,0.00
2017-11-28T04:20:18.190Z,0.00
2017-11-28T04:21:18.306Z,0.00
2017-11-28T04:22:18.127Z,0.00
2017-11-28T04:23:18.206Z,0.00
2017-11-28T04:24:18.064Z,0.00
2017-11-28T04:25:18.117Z,0.00
2017-11-28T04:26:18.005Z,0.00
2017-11-28T04:27:18.133Z,0.00
2017-11-28T04:28:17.946Z,0.00
2017-11-28T04:29:18.047Z,0.00
2017-11-28T04:30:17.882Z,0.00
2017-11-28T04:31:17.959Z,0.00
2017-11-28T04:32:17.822Z,0.00
2017-11-28T04:33:17.971Z,0.00
2017-11-28T04:34:17.759Z,0.00
2017-11-28T04:35:17.883Z,0.00
2017-11-28T04:36:17.701Z,0.00
2017-11-28T04:37:17.796Z,0.00
2017-11-28T04:38:17.642Z,0.00
2017-11-28T04:39:17.706Z,0.00
2017-11-28T04:40:17.578Z,0.00
2017-11-28T04:41:17.724Z,0.00
2017-11-28T04:42:17.517Z,0.00
2017-11-28T04:43:17.632Z,0.00
2017-11-28T04:44:17.457Z,0.00
2017-11-28T04:45:17.542Z,0.00
2017-11-28T04:46:17.396Z,0.00
2017-11-28T04:47:17.555Z,0.00
2017-11-28T04:48:17.337Z,0.00
2017-11-28T04:49:17.472Z,0.00
2017-11-28T04:50:17.276Z,0.00
2017-11-28T04:51:17.381Z,0.00
2017-11-28T04:52:17.215Z,0.00
2017-11-28T04:53:17.292Z,0.00
2017-11-28T04:54:17.152Z,0.00
2017-11-28T04:55:17.306Z,0.00
2017-11-28T04:56:17.091Z,0.00
2017-11-28T04:57:17.219Z,0.00
2017-11-28T04:58:17.032Z,0.00
2017-11-28T04:59:17.130Z,0.00
2017-11-28T05:00:16.973Z,0.00
2017-11-28T05:01:17.142Z,0.00
2017-11-28T05:02:16.914Z,0.00
2017-11-28T05:03:17.052Z,0.00
2017-11-28T05:04:16.855Z,0.00
2017-11-28T05:05:16.964Z,0.00
2017-11-28T05:06:16.791Z,0.00
2017-11-28T05:07:16.876Z,0.00
2017-11-28T05:08:16.729Z,0.00
2017-11-28T05:09:16.893Z,0.00
2017-11-28T05:10:16.669Z,0.00
2017-11-28T05:11:16.800Z,0.00
2017-11-28T05:12:16.606Z,0.00
2017-11-28T05:13:16.724Z,0.00
2017-11-28T05:14:16.544Z,0.00
2017-11-28T05:15:16.728Z,0.00
2017-11-28T05:16:16.579Z,0.00
2017-11-28T05:17:16.638Z,0.00
2017-11-28T05:18:16.423Z,0.00
2017-11-28T05:19:16.550Z,0.00
2017-11-28T05:20:16.358Z,0.00
2017-11-28T05:21:16.461Z,0.00
2017-11-28T05:22:16.301Z,0.00
2017-11-28T05:23:16.484Z,0.00
2017-11-28T05:24:16.237Z,0.00
2017-11-28T05:25:16.386Z,0.00
2017-11-28T05:26:16.184Z,0.00
2017-11-28T05:27:16.302Z,0.00
2017-11-28T05:28:16.120Z,0.00
2017-11-28T05:29:16.108Z,0.00
2017-11-28T05:30:16.053Z,0.00
2017-11-28T05:31:16.122Z,0.00
2017-11-28T05:32:16.001Z,0.00
2017-11-28T05:33:16.032Z,0.00
2017-11-28T05:34:15.942Z,0.00
2017-11-28T05:35:15.945Z,0.00
2017-11-28T05:36:15.869Z,0.00
2017-11-28T05:37:15.958Z,0.00
2017-11-28T05:38:15.809Z,0.00
2017-11-28T05:39:15.881Z,0.00
2017-11-28T05:40:15.752Z,0.00
2017-11-28T05:41:15.779Z,0.00
2017-11-28T05:42:15.690Z,0.00
2017-11-28T05:43:15.693Z,0.00
2017-11-28T05:44:15.633Z,0.00
2017-11-28T05:45:15.703Z,0.00
2017-11-28T05:46:15.562Z,0.00
2017-11-28T05:47:15.616Z,0.00
2017-11-28T05:48:15.518Z,0.00
2017-11-28T05:49:15.530Z,0.00
2017-11-28T05:50:15.438Z,0.00
2017-11-28T05:51:15.543Z,0.00
2017-11-28T05:52:15.383Z,0.00
2017-11-28T05:53:15.452Z,0.00
2017-11-28T05:54:15.323Z,0.00
2017-11-28T05:55:15.364Z,0.00
2017-11-28T05:56:15.262Z,0.00
2017-11-28T05:57:15.276Z,0.00
2017-11-28T05:58:15.196Z,0.00
2017-11-28T05:59:15.284Z,0.00
2017-11-28T06:00:15.132Z,0.00
2017-11-28T06:01:15.201Z,0.00
2017-11-28T06:02:15.073Z,0.00
2017-11-28T06:03:15.111Z,0.00
2017-11-28T06:04:15.013Z,0.00
2017-11-28T06:05:15.125Z,0.00
2017-11-28T06:06:14.959Z,0.00
2017-11-28T06:07:15.039Z,0.00
2017-11-28T06:08:14.890Z,0.00
2017-11-28T06:09:14.948Z,0.00
2017-11-28T06:10:14.829Z,0.00
2017-11-28T06:11:14.863Z,0.00
2017-11-28T06:12:14.767Z,0.00
2017-11-28T06:13:14.916Z,0.00
2017-11-28T06:14:14.707Z,0.00
2017-11-28T06:15:14.784Z,0.00
2017-11-28T06:16:14.641Z,0.00
2017-11-28T06:17:14.702Z,0.00
2017-11-28T06:18:14.581Z,0.00
2017-11-28T06:19:14.607Z,0.00
2017-11-28T06:20:14.520Z,0.00
2017-11-28T06:21:14.621Z,0.00
2017-11-28T06:22:14.461Z,0.00
2017-11-28T06:23:14.535Z,0.00
2017-11-28T06:24:14.401Z,0.00
2017-11-28T06:25:14.445Z,0.00
2017-11-28T06:26:14.344Z,0.00
2017-11-28T06:27:14.457Z,0.00
2017-11-28T06:28:14.290Z,0.00
2017-11-28T06:29:14.373Z,0.00
2017-11-28T06:30:14.212Z,0.00
2017-11-28T06:31:14.285Z,0.00
2017-11-28T06:32:14.151Z,0.00
2017-11-28T06:33:14.194Z,0.00
2017-11-28T06:34:14.086Z,0.00
2017-11-28T06:35:14.208Z,0.00
2017-11-28T06:36:14.026Z,0.00
2017-11-28T06:37:14.122Z,0.00
2017-11-28T06:38:13.963Z,0.00
2017-11-28T06:39:14.029Z,0.00
2017-11-28T06:40:13.897Z,0.00
2017-11-28T06:41:13.938Z,0.00
2017-11-28T06:42:13.839Z,0.00
2017-11-28T06:43:13.956Z,0.00
2017-11-28T06:44:13.781Z,0.00
2017-11-28T06:45:13.743Z,0.00
2017-11-28T06:46:13.713Z,0.00
2017-11-28T06:47:13.778Z,0.00
2017-11-28T06:48:13.652Z,0.00
2017-11-28T06:49:13.692Z,0.00
2017-11-28T06:50:13.589Z,0.00
2017-11-28T06:51:13.561Z,0.00
2017-11-28T06:52:13.607Z,0.00
2017-11-28T06:53:13.508Z,0.00
2017-11-28T06:54:13.523Z,0.00
2017-11-28T06:55:13.435Z,0.00
2017-11-28T06:56:13.432Z,0.00
2017-11-28T06:57:13.377Z,0.00
2017-11-28T06:58:13.448Z,0.00
2017-11-28T06:59:13.310Z,0.00
2017-11-28T07:00:13.351Z,0.00
2017-11-28T07:01:13.248Z,0.00
2017-11-28T07:02:13.267Z,0.00
2017-11-28T07:03:13.204Z,0.00
2017-11-28T07:04:13.183Z,0.00
2017-11-28T07:05:13.124Z,0.00
2017-11-28T07:06:13.191Z,0.00
2017-11-28T07:07:13.060Z,0.00
2017-11-28T07:08:13.105Z,5.63
2017-11-28T07:09:13.003Z,5.63
2017-11-28T07:10:13.023Z,5.63
2017-11-28T07:11:12.936Z,5.63
2017-11-28T07:12:12.927Z,5.63
2017-11-28T07:13:12.868Z,5.63
2017-11-28T07:14:12.937Z,5.63
2017-11-28T07:15:13.236Z,5.63
2017-11-28T07:16:12.850Z,5.63
2017-11-28T07:17:12.768Z,5.63
2017-11-28T07:18:12.766Z,5.63
2017-11-28T07:19:12.685Z,11.25
2017-11-28T07:20:12.670Z,11.25
2017-11-28T07:21:12.622Z,11.25
2017-11-28T07:22:12.689Z,11.25
2017-11-28T07:23:12.568Z,11.25
2017-11-28T07:24:12.603Z,11.25
2017-11-28T07:25:12.499Z,11.25
2017-11-28T07:26:12.511Z,16.88
2017-11-28T07:27:12.438Z,16.88
2017-11-28T07:28:12.425Z,16.88
2017-11-28T07:29:12.373Z,16.88
2017-11-28T07:30:12.439Z,16.88
2017-11-28T07:31:12.311Z,22.50
2017-11-28T07:32:12.350Z,22.50
2017-11-28T07:33:12.250Z,22.50
2017-11-28T07:34:12.268Z,28.13
2017-11-28T07:35:12.183Z,28.13
2017-11-28T07:36:12.172Z,28.13
2017-11-28T07:37:12.127Z,28.13
2017-11-28T07:38:12.187Z,33.75
2017-11-28T07:39:12.061Z,33.75
2017-11-28T07:40:12.098Z,33.75
2017-11-28T07:41:12.003Z,33.75
2017-11-28T07:42:12.009Z,33.75
2017-11-28T07:43:11.937Z,39.38
2017-11-28T07:44:11.920Z,39.38
2017-11-28T07:45:11.881Z,39.38
2017-11-28T07:46:11.936Z,39.38
2017-11-28T07:47:11.813Z,45.00
2017-11-28T07:48:11.868Z,45.00
2017-11-28T07:49:11.751Z,45.00
2017-11-28T07:50:11.756Z,45.00
2017-11-28T07:51:11.686Z,50.63
2017-11-28T07:52:11.771Z,50.63
2017-11-28T07:53:11.623Z,50.63
2017-11-28T07:54:11.680Z,50.63
2017-11-28T07:55:11.563Z,56.25
2017-11-28T07:56:11.591Z,56.25
2017-11-28T07:57:11.500Z,56.25
2017-11-28T07:58:11.504Z,56.25
2017-11-28T07:59:11.437Z,61.88
2017-11-28T08:00:11.408Z,61.88
2017-11-28T08:01:11.422Z,61.88
2017-11-28T08:02:11.345Z,67.50
2017-11-28T08:03:11.332Z,67.50
2017-11-28T08:04:11.288Z,67.50
2017-11-28T08:05:11.258Z,67.50
2017-11-28T08:06:11.242Z,73.13
2017-11-28T08:07:11.257Z,73.13
2017-11-28T08:08:11.156Z,73.13
2017-11-28T08:09:11.173Z,78.75
2017-11-28T08:10:11.092Z,78.75
2017-11-28T08:11:11.080Z,84.38
2017-11-28T08:12:11.045Z,84.38
2017-11-28T08:13:11.005Z,84.38
2017-11-28T08:14:10.970Z,90.00
2017-11-28T08:15:11.013Z,90.00
2017-11-28T08:16:10.909Z,90.00
2017-11-28T08:17:10.918Z,95.63
2017-11-28T08:18:10.845Z,95.63
2017-11-28T08:19:11.173Z,95.63
2017-11-28T08:20:10.783Z,101.25
2017-11-28T08:21:10.846Z,101.25
2017-11-28T08:22:10.717Z,101.25
2017-11-28T08:23:10.755Z,101.25
2017-11-28T08:24:10.661Z,101.25
2017-11-28T08:25:10.668Z,106.88
2017-11-28T08:26:10.602Z,112.50
2017-11-28T08:27:10.592Z,118.13
2017-11-28T08:28:10.536Z,123.75
2017-11-28T08:29:10.596Z,123.75
2017-11-28T08:30:10.472Z,123.75
2017-11-28T08:31:10.499Z,123.75
2017-11-28T08:32:10.414Z,135.00
2017-11-28T08:33:10.416Z,146.25
2017-11-28T08:34:10.354Z,146.25
2017-11-28T08:35:10.431Z,151.88
2017-11-28T08:36:10.287Z,163.13
2017-11-28T08:37:10.344Z,168.75
2017-11-28T08:38:10.219Z,174.38
2017-11-28T08:39:10.253Z,174.38
2017-11-28T08:40:10.166Z,191.25
2017-11-28T08:41:10.174Z,202.50
2017-11-28T08:42:10.101Z,208.13
2017-11-28T08:43:10.176Z,202.50
2017-11-28T08:44:10.040Z,185.63
2017-11-28T08:45:10.092Z,174.38
2017-11-28T08:46:09.976Z,174.38
2017-11-28T08:47:10.004Z,157.50
2017-11-28T08:48:09.916Z,151.88
2017-11-28T08:49:09.912Z,168.75
2017-11-28T08:50:09.857Z,191.25
2017-11-28T08:51:09.928Z,202.50
2017-11-28T08:52:09.795Z,196.88
2017-11-28T08:53:09.837Z,191.25
2017-11-28T08:54:09.734Z,185.63
2017-11-28T08:55:09.744Z,191.25
2017-11-28T08:56:09.670Z,196.88
2017-11-28T08:57:09.658Z,202.50
2017-11-28T08:58:09.612Z,208.13
2017-11-28T08:59:09.677Z,225.00
2017-11-28T09:00:09.550Z,247.50
2017-11-28T09:01:09.584Z,247.50
2017-11-28T09:02:09.489Z,241.88
2017-11-28T09:03:09.497Z,241.88
2017-11-28T09:04:09.428Z,270.00
2017-11-28T09:05:09.509Z,742.50
2017-11-28T09:06:09.368Z,1456.88
2017-11-28T09:07:09.419Z,225.00
2017-11-28T09:08:09.305Z,444.38
2017-11-28T09:09:09.334Z,2176.88
2017-11-28T09:10:09.247Z,900.00
2017-11-28T09:11:09.246Z,1552.50
2017-11-28T09:12:09.185Z,2266.88
2017-11-28T09:13:09.262Z,2463.75
2017-11-28T09:14:09.128Z,2700.00
2017-11-28T09:15:09.168Z,2626.88
2017-11-28T09:16:09.076Z,1040.63
2017-11-28T09:17:09.083Z,2902.50
2017-11-28T09:18:09.023Z,2896.88
2017-11-28T09:19:09.094Z,2925.00
2017-11-28T09:20:08.971Z,3093.75
2017-11-28T09:21:09.007Z,2992.50
2017-11-28T09:22:08.921Z,3037.50
2017-11-28T09:23:08.921Z,3133.13
2017-11-28T09:24:08.878Z,3183.75
2017-11-28T09:25:08.928Z,3155.63
2017-11-28T09:26:08.837Z,3116.25
2017-11-28T09:27:08.846Z,3211.88
2017-11-28T09:28:08.792Z,3195.00
2017-11-28T09:29:08.854Z,3245.63
2017-11-28T09:30:08.748Z,3386.25
2017-11-28T09:31:08.765Z,3318.75
2017-11-28T09:32:08.709Z,3363.75
2017-11-28T09:33:08.779Z,3228.75
2017-11-28T09:34:08.662Z,3431.25
2017-11-28T09:35:08.690Z,3285.00
2017-11-28T09:36:08.629Z,3256.88
2017-11-28T09:37:08.707Z,3352.50
2017-11-28T09:38:08.589Z,3240.00
2017-11-28T09:39:08.616Z,2851.88
2017-11-28T09:40:08.554Z,3060.00
2017-11-28T09:41:08.633Z,3195.00
2017-11-28T09:42:08.519Z,3324.38
2017-11-28T09:43:08.550Z,3476.25
2017-11-28T09:44:08.482Z,3346.88
2017-11-28T09:45:08.552Z,2025.00
2017-11-28T09:46:08.463Z,2919.38
2017-11-28T09:47:08.470Z,3493.13
2017-11-28T09:48:08.413Z,2446.88
2017-11-28T09:49:08.483Z,3155.63
2017-11-28T09:50:08.383Z,3133.13
2017-11-28T09:51:08.396Z,2947.50
2017-11-28T09:52:08.345Z,2981.25
2017-11-28T09:53:08.408Z,3116.25
2017-11-28T09:54:08.317Z,905.63
2017-11-28T09:55:08.327Z,1417.50
2017-11-28T09:56:08.267Z,2070.00
2017-11-28T09:57:08.335Z,1861.88
2017-11-28T09:58:08.233Z,1186.88
2017-11-28T09:59:08.248Z,1743.75
2017-11-28T10:00:08.197Z,1760.63
2017-11-28T10:01:08.264Z,3043.13
2017-11-28T10:02:08.161Z,2503.13
2017-11-28T10:03:08.172Z,1777.50
2017-11-28T10:04:08.134Z,708.75
2017-11-28T10:05:08.269Z,455.63
2017-11-28T10:06:08.091Z,517.50
2017-11-28T10:07:08.099Z,421.88
2017-11-28T10:08:08.048Z,388.13
2017-11-28T10:09:08.109Z,298.13
2017-11-28T10:10:08.005Z,573.75
2017-11-28T10:11:08.022Z,2351.25
2017-11-28T10:12:07.968Z,753.75
2017-11-28T10:13:08.034Z,208.13
2017-11-28T10:14:07.929Z,241.88
2017-11-28T10:15:07.946Z,191.25
2017-11-28T10:16:07.885Z,146.25
2017-11-28T10:17:07.960Z,123.75
2017-11-28T10:18:07.841Z,135.00
2017-11-28T10:19:07.871Z,123.75
2017-11-28T10:20:07.796Z,123.75
2017-11-28T10:21:07.885Z,112.50
2017-11-28T10:22:07.748Z,95.63
2017-11-28T10:23:07.797Z,84.38
2017-11-28T10:24:07.705Z,73.13
2017-11-28T10:25:07.711Z,67.50
2017-11-28T10:26:07.662Z,61.88
2017-11-28T10:27:07.726Z,61.88
2017-11-28T10:28:07.609Z,61.88
2017-11-28T10:29:07.655Z,61.88
2017-11-28T10:30:07.561Z,78.75
2017-11-28T10:31:07.647Z,163.13
2017-11-28T10:32:07.508Z,1310.63
2017-11-28T10:33:07.588Z,208.13
2017-11-28T10:34:07.459Z,180.00
2017-11-28T10:35:07.472Z,163.13
2017-11-28T10:36:07.411Z,191.25
2017-11-28T10:37:07.483Z,106.88
2017-11-28T10:38:07.352Z,90.00
2017-11-28T10:39:07.395Z,90.00
2017-11-28T10:40:07.301Z,112.50
2017-11-28T10:41:07.305Z,157.50
2017-11-28T10:42:07.250Z,236.25
2017-11-28T10:43:07.320Z,309.38
2017-11-28T10:44:07.205Z,382.50
2017-11-28T10:45:07.232Z,455.63
2017-11-28T10:46:07.147Z,461.25
2017-11-28T10:47:07.142Z,298.13
2017-11-28T10:48:07.098Z,286.88
2017-11-28T10:49:07.156Z,348.75
2017-11-28T10:50:07.040Z,303.75
2017-11-28T10:51:07.068Z,208.13
2017-11-28T10:52:06.988Z,230.63
2017-11-28T10:53:06.982Z,253.13
2017-11-28T10:54:06.931Z,196.88
2017-11-28T10:55:06.990Z,112.50
2017-11-28T10:56:06.878Z,112.50
2017-11-28T10:57:06.905Z,129.38
2017-11-28T10:58:06.828Z,163.13
2017-11-28T10:59:06.815Z,112.50
2017-11-28T11:00:06.765Z,73.13
2017-11-28T11:01:06.829Z,56.25
2017-11-28T11:02:06.714Z,45.00
2017-11-28T11:03:06.743Z,39.38
2017-11-28T11:04:06.667Z,45.00
2017-11-28T11:05:06.671Z,50.63
2017-11-28T11:06:06.606Z,50.63
2017-11-28T11:07:06.664Z,73.13
2017-11-28T11:08:06.550Z,73.13
2017-11-28T11:09:06.581Z,112.50
2017-11-28T11:10:06.497Z,208.13
2017-11-28T11:11:06.505Z,185.63
2017-11-28T11:12:06.433Z,241.88
2017-11-28T11:13:06.502Z,382.50
2017-11-28T11:14:06.385Z,483.75
2017-11-28T11:15:06.414Z,309.38
2017-11-28T11:16:06.329Z,753.75
2017-11-28T11:17:06.325Z,826.88
2017-11-28T11:18:06.268Z,883.13
2017-11-28T11:19:06.343Z,337.50
2017-11-28T11:20:06.215Z,1406.25
2017-11-28T11:21:06.250Z,393.75
2017-11-28T11:22:06.160Z,511.88
2017-11-28T11:23:06.162Z,331.88
2017-11-28T11:24:06.103Z,241.88
2017-11-28T11:25:06.176Z,196.88
2017-11-28T11:26:06.046Z,106.88
2017-11-28T11:27:06.084Z,67.50
2017-11-28T11:28:05.998Z,50.63
2017-11-28T11:29:06.009Z,45.00
2017-11-28T11:30:05.937Z,50.63
2017-11-28T11:31:06.009Z,56.25
2017-11-28T11:32:05.889Z,61.88
2017-11-28T11:33:05.939Z,67.50
2017-11-28T11:34:05.827Z,84.38
2017-11-28T11:35:05.838Z,95.63
2017-11-28T11:36:05.780Z,95.63
2017-11-28T11:37:05.853Z,84.38
2017-11-28T11:38:05.729Z,78.75
2017-11-28T11:39:05.759Z,84.38
2017-11-28T11:40:05.673Z,95.63
2017-11-28T11:41:05.675Z,112.50
2017-11-28T11:42:05.609Z,106.88
2017-11-28T11:43:06.618Z,90.00
2017-11-28T11:44:05.561Z,73.13
2017-11-28T11:45:05.601Z,84.38
2017-11-28T11:46:05.497Z,106.88
2017-11-28T11:47:05.513Z,151.88
2017-11-28T11:48:05.446Z,219.38
2017-11-28T11:49:05.539Z,247.50
2017-11-28T11:50:05.382Z,270.00
2017-11-28T11:51:05.446Z,2109.38
2017-11-28T11:52:05.324Z,1113.75
2017-11-28T11:53:05.351Z,303.75
2017-11-28T11:54:05.277Z,202.50
2017-11-28T11:55:06.381Z,151.88
2017-11-28T11:56:05.218Z,129.38
2017-11-28T11:57:05.386Z,106.88
2017-11-28T11:58:05.161Z,112.50
2017-11-28T11:59:05.283Z,112.50
2017-11-28T12:00:05.119Z,118.13
2017-11-28T12:01:05.086Z,151.88
2017-11-28T12:02:05.209Z,163.13
2017-11-28T12:03:05.022Z,146.25
2017-11-28T12:04:05.125Z,146.25
2017-11-28T12:05:04.970Z,146.25
2017-11-28T12:06:05.030Z,168.75
2017-11-28T12:07:04.915Z,157.50
2017-11-28T12:08:05.047Z,151.88
2017-11-28T12:09:04.855Z,202.50
2017-11-28T12:10:04.986Z,230.63
2017-11-28T12:11:04.806Z,225.00
2017-11-28T12:12:04.866Z,438.75
2017-11-28T12:13:04.744Z,275.63
2017-11-28T12:14:04.780Z,236.25
2017-11-28T12:15:04.692Z,337.50
2017-11-28T12:16:04.789Z,225.00
2017-11-28T12:17:04.636Z,196.88
2017-11-28T12:18:04.705Z,191.25
2017-11-28T12:19:04.577Z,180.00
2017-11-28T12:20:04.620Z,157.50
2017-11-28T12:21:04.528Z,151.88
2017-11-28T12:22:04.631Z,163.13
2017-11-28T12:23:04.470Z,219.38
2017-11-28T12:24:04.645Z,258.75
2017-11-28T12:25:04.413Z,241.88
2017-11-28T12:26:04.562Z,495.00
2017-11-28T12:27:04.359Z,258.75
2017-11-28T12:28:04.504Z,230.63
2017-11-28T12:29:04.301Z,191.25
2017-11-28T12:30:04.491Z,151.88
2017-11-28T12:31:04.250Z,191.25
2017-11-28T12:32:04.390Z,163.13
2017-11-28T12:33:04.196Z,146.25
2017-11-28T12:34:04.306Z,185.63
2017-11-28T12:35:04.139Z,180.00
2017-11-28T12:36:04.322Z,191.25
2017-11-28T12:37:04.084Z,213.75
2017-11-28T12:38:04.228Z,174.38
2017-11-28T12:39:04.027Z,123.75
2017-11-28T12:40:04.036Z,101.25
2017-11-28T12:41:03.967Z,106.88
2017-11-28T12:42:04.057Z,135.00
2017-11-28T12:43:03.922Z,129.38
2017-11-28T12:44:03.960Z,146.25
2017-11-28T12:45:03.979Z,118.13
2017-11-28T12:46:03.976Z,101.25
2017-11-28T12:47:03.803Z,84.38
2017-11-28T12:48:03.887Z,90.00
2017-11-28T12:49:03.750Z,95.63
2017-11-28T12:50:03.897Z,112.50
2017-11-28T12:51:03.693Z,112.50
2017-11-28T12:52:03.812Z,118.13
2017-11-28T12:53:03.642Z,213.75
2017-11-28T12:54:03.825Z,146.25
2017-11-28T12:55:03.585Z,146.25
2017-11-28T12:56:03.738Z,123.75
2017-11-28T12:57:03.519Z,135.00